Time;durP1;ratioP1;P1;durP2;ratioP2;P2;SDS_P1;SDS_P2;PMS_P1;PMS_P2;Temp;Humidity;BMP_temperature;BMP_pressure;BME280_temperature;BME280_humidity;BME280_pressure;Samples;Min_cycle;Max_cycle;Signal;HPM_P1;HPM_P2
2021/11/04 21:39:00;;;;;;;15.68;12.73;;;;;;;4.53;100.00;101390.34;5090899;27;20385;-36
2021/11/04 21:41:26;;;;;;;19.48;13.27;;;;;;;4.42;100.00;101377.38;5090738;28;20044;-36
2021/11/04 21:43:53;;;;;;;16.30;12.82;;;;;;;4.48;100.00;101387.38;5090495;28;20024;-36
2021/11/04 21:46:21;;;;;;;16.92;11.85;;;;;;;4.39;100.00;101391.97;5090793;28;20024;-36
2021/11/04 21:48:50;;;;;;;17.80;11.77;;;;;;;4.40;100.00;101395.47;5091074;28;20024;-36
2021/11/04 21:51:17;;;;;;;15.18;12.10;;;;;;;4.39;100.00;101394.66;5090649;28;20028;-36
2021/11/04 21:53:42;;;;;;;;;;;;;;;4.47;100.00;101403.63;5091178;28;20092;-36
2021/11/04 21:56:07;;;;;;;13.77;10.63;;;;;;;4.39;100.00;101409.84;5090039;28;19909;-36
2021/11/04 21:58:35;;;;;;;17.17;11.33;;;;;;;4.06;100.00;101371.75;5089949;28;20039;-35
2021/11/04 22:01:07;;;;;;;16.92;10.57;;;;;;;4.26;100.00;101415.81;5090146;28;20025;-35
2021/11/04 22:03:34;;;;;;;13.70;11.40;;;;;;;4.21;100.00;101407.47;5090533;28;20028;-36
2021/11/04 22:06:02;;;;;;;17.73;10.68;;;;;;;4.21;100.00;101410.16;5089836;28;20543;-36
2021/11/04 22:08:28;;;;;;;14.93;11.50;;;;;;;4.21;100.00;101420.84;5090447;28;20107;-36
2021/11/04 22:10:55;;;;;;;13.73;10.95;;;;;;;4.21;100.00;101414.66;5090675;28;20471;-36
2021/11/04 22:13:20;;;;;;;13.80;10.80;;;;;;;4.18;100.00;101417.69;5090559;28;20427;-36
2021/11/04 22:15:46;;;;;;;14.52;9.77;;;;;;;4.16;100.00;101425.91;5090050;28;20036;-36
2021/11/04 22:18:13;;;;;;;15.07;10.80;;;;;;;4.11;100.00;101425.59;5089940;28;20063;-36
2021/11/04 22:20:38;;;;;;;14.45;9.82;;;;;;;4.11;100.00;101429.09;5089852;28;20037;-36
2021/11/04 22:23:03;;;;;;;12.37;9.47;;;;;;;4.05;100.00;101423.59;5090468;28;20028;-35
2021/11/04 22:25:29;;;;;;;12.63;9.80;;;;;;;4.04;100.00;101435.31;5089741;28;20040;-35
2021/11/04 22:27:59;;;;;;;15.55;9.60;;;;;;;4.03;100.00;101430.97;5089201;28;20044;-35
2021/11/04 22:30:24;;;;;;;12.85;9.93;;;;;;;4.03;100.00;101433.66;5089493;28;20389;-36
2021/11/04 22:32:51;;;;;;;14.20;10.02;;;;;;;3.90;100.00;101449.41;5089752;28;20024;-35
2021/11/04 22:35:17;;;;;;;15.77;10.90;;;;;;;3.95;100.00;101455.06;5089937;28;20067;-36
2021/11/04 22:37:46;;;;;;;13.38;9.90;;;;;;;3.85;100.00;101450.75;5089863;28;20056;-37
2021/11/04 22:40:13;;;;;;;16.55;10.98;;;;;;;3.80;100.00;101433.56;5089777;28;20074;-36
2021/11/04 22:42:38;;;;;;;16.85;11.75;;;;;;;3.77;100.00;101440.09;5089511;28;20360;-36
2021/11/04 22:45:09;;;;;;;15.60;10.80;;;;;;;3.86;100.00;101451.63;5089226;28;20028;-36
2021/11/04 22:47:35;;;;;;;15.77;11.60;;;;;;;3.83;100.00;101463.47;5089658;28;20576;-36
2021/11/04 22:50:00;;;;;;;14.05;9.68;;;;;;;3.88;100.00;101463.78;5077576;28;20039;-36
2021/11/04 22:52:26;;;;;;;16.30;10.60;;;;;;;3.82;100.00;101467.16;5076376;28;20507;-36
2021/11/04 22:54:52;;;;;;;15.80;10.45;;;;;;;3.91;100.00;101469.81;5075443;28;20032;-36
2021/11/04 22:57:18;;;;;;;13.47;10.03;;;;;;;3.76;100.00;101465.19;5075953;28;20029;-36
2021/11/04 22:59:43;;;;;;;;;;;;;;;3.91;100.00;101475.19;5075996;28;20024;-36
2021/11/04 23:02:11;;;;;;;13.20;9.57;;;;;;;3.82;100.00;101477.88;5076258;28;20250;-37
2021/11/04 23:04:36;;;;;;;13.38;9.85;;;;;;;3.65;100.00;101486.91;5075364;28;20279;-36
2021/11/04 23:07:03;;;;;;;14.87;10.53;;;;;;;3.71;100.00;101486.25;5075856;28;20039;-36
2021/11/04 23:09:30;;;;;;;;;;;;;;;3.78;100.00;101489.91;5075597;28;20468;-36
2021/11/04 23:11:55;;;;;;;12.90;10.00;;;;;;;3.72;100.00;101492.44;5075494;28;19908;-36
2021/11/04 23:14:21;;;;;;;14.70;10.47;;;;;;;3.70;100.00;101497.13;5075205;28;20039;-36
2021/11/04 23:16:47;;;;;;;13.88;10.52;;;;;;;3.58;100.00;101481.44;5075825;28;20251;-36
2021/11/04 23:19:12;;;;;;;14.18;10.13;;;;;;;3.54;100.00;101506.84;5075121;28;20103;-37
2021/11/04 23:21:38;;;;;;;13.37;10.70;;;;;;;3.50;100.00;101507.34;5075313;28;20451;-37
2021/11/04 23:24:04;;;;;;;13.97;9.70;;;;;;;3.53;100.00;101507.00;5075664;28;20033;-37
2021/11/04 23:26:29;;;;;;;19.80;10.77;;;;;;;3.54;100.00;101522.03;5075229;28;20032;-37
2021/11/04 23:28:55;;;;;;;14.40;10.73;;;;;;;3.45;100.00;101512.34;5075483;28;20056;-37
2021/11/04 23:31:21;;;;;;;15.13;10.85;;;;;;;3.52;100.00;101521.38;5075363;28;20346;-37
2021/11/04 23:33:46;;;;;;;15.48;11.30;;;;;;;3.53;100.00;101531.91;5074776;28;20103;-37
2021/11/04 23:36:12;;;;;;;12.00;10.10;;;;;;;3.46;100.00;101536.25;5075861;28;20044;-37
2021/11/04 23:38:37;;;;;;;15.70;10.32;;;;;;;3.31;100.00;101527.22;5075518;28;20041;-37
2021/11/04 23:41:03;;;;;;;16.80;10.83;;;;;;;3.46;100.00;101543.44;5075410;28;20228;-38
2021/11/04 23:43:29;;;;;;;14.00;10.07;;;;;;;3.48;100.00;101541.44;5075497;28;20439;-37
2021/11/04 23:45:55;;;;;;;13.68;10.15;;;;;;;3.34;100.00;101548.28;5074552;28;20028;-37
2021/11/04 23:48:20;;;;;;;12.38;9.75;;;;;;;3.33;100.00;101542.09;5074550;28;20538;-37
2021/11/04 23:50:46;;;;;;;13.57;10.37;;;;;;;3.36;100.00;101551.63;5075067;28;20422;-37
2021/11/04 23:53:13;;;;;;;;;;;;;;;3.48;100.00;101554.81;5075981;28;20025;-37
2021/11/04 23:55:38;;;;;;;11.75;8.68;;;;;;;3.44;100.00;101554.31;5074569;28;19954;-37
2021/11/04 23:58:04;;;;;;;13.40;10.93;;;;;;;3.41;100.00;101567.16;5074873;28;20064;-37
